Time;durP1;ratioP1;P1;durP2;ratioP2;P2;SDS_P1;SDS_P2;PMS_P1;PMS_P2;Temp;Humidity;BMP_temperature;BMP_pressure;BME280_temperature;BME280_humidity;BME280_pressure;Samples;Min_cycle;Max_cycle;Signal;HPM_P1;HPM_P2
2021/09/02 00:00:02;;;;;;;4.95;3.17;;;;;;;;;;5027179;28;20104;-84
2021/09/02 00:02:28;;;;;;;4.68;3.00;;;;;;;;;;5022878;28;20060;-84
2021/09/02 00:04:55;;;;;;;5.57;3.10;;;;;;;;;;5019122;28;20797;-83
2021/09/02 00:07:21;;;;;;;4.53;2.80;;;;;;;;;;5017278;28;20507;-85
2021/09/02 00:09:48;;;;;;;4.85;3.10;;;;;;;;;;5020597;28;20429;-84
2021/09/02 00:12:14;;;;;;;4.68;2.70;;;;;;;;;;5025850;28;20068;-84
2021/09/02 00:14:41;;;;;;;4.85;3.15;;;;;;;;;;5025852;28;20056;-84
2021/09/02 00:17:07;;;;;;;5.15;3.20;;;;;;;;;;5015985;28;20068;-85
2021/09/02 00:19:35;;;;;;;5.85;3.47;;;;;;;;;;5023758;28;20068;-85
2021/09/02 00:22:02;;;;;;;6.78;3.60;;;;;;;;;;5018955;28;20732;-84
2021/09/02 00:24:29;;;;;;;5.18;2.90;;;;;;;;;;5020733;28;20085;-86
2021/09/02 00:26:55;;;;;;;6.10;3.25;;;;;;;;;;5017540;28;20064;-83
2021/09/02 00:29:25;;;;;;;4.78;3.20;;;;;;;;;;5019805;28;20053;-84
2021/09/02 00:31:51;;;;;;;3.90;2.80;;;;;;;;;;5010972;28;20382;-84
2021/09/02 00:34:17;;;;;;;5.30;3.30;;;;;;;;;;5027551;28;20069;-85
2021/09/02 00:36:44;;;;;;;4.93;3.05;;;;;;;;;;5027708;28;20079;-84
2021/09/02 00:39:10;;;;;;;4.43;3.00;;;;;;;;;;5026364;28;20060;-84
2021/09/02 00:41:36;;;;;;;5.55;3.08;;;;;;;;;;5023262;28;20145;-85
2021/09/02 00:44:03;;;;;;;4.70;2.85;;;;;;;;;;5025322;28;20183;-85
2021/09/02 00:46:29;;;;;;;4.30;2.88;;;;;;;;;;5018233;28;20066;-86
2021/09/02 00:48:56;;;;;;;4.28;2.78;;;;;;;;;;5020085;28;20158;-86
2021/09/02 00:51:23;;;;;;;5.00;3.20;;;;;;;;;;5031968;28;20068;-87
2021/09/02 00:53:50;;;;;;;5.72;3.08;;;;;;;;;;5018739;28;20514;-86
2021/09/02 00:56:17;;;;;;;4.75;2.85;;;;;;;;;;5013130;28;20076;-85
2021/09/02 00:58:44;;;;;;;5.13;2.97;;;;;;;;;;5021936;28;20127;-85
2021/09/02 01:01:11;;;;;;;5.22;3.33;;;;;;;;;;5013626;28;20206;-86
2021/09/02 01:03:38;;;;;;;4.97;2.75;;;;;;;;;;5027389;28;20103;-86
2021/09/02 01:06:04;;;;;;;5.35;2.60;;;;;;;;;;5029943;28;20057;-84
2021/09/02 01:08:31;;;;;;;5.00;2.90;;;;;;;;;;5024478;28;20071;-86
2021/09/02 01:10:57;;;;;;;4.53;2.67;;;;;;;;;;5026848;28;20057;-86
2021/09/02 01:13:24;;;;;;;5.38;3.25;;;;;;;;;;5013376;28;20064;-84
2021/09/02 01:15:51;;;;;;;5.10;2.90;;;;;;;;;;5025654;28;20079;-86
2021/09/02 01:18:17;;;;;;;5.10;3.30;;;;;;;;;;5024359;28;20092;-87
2021/09/02 01:20:43;;;;;;;4.82;3.00;;;;;;;;;;4991366;28;20069;-87
2021/09/02 01:23:10;;;;;;;5.40;3.08;;;;;;;;;;5028135;28;20667;-86
2021/09/02 01:25:42;;;;;;;4.53;2.67;;;;;;;;;;5018147;28;20073;-86
2021/09/02 01:28:09;;;;;;;4.93;2.78;;;;;;;;;;5027464;28;20053;-87
2021/09/02 01:30:37;;;;;;;4.22;2.67;;;;;;;;;;5026750;28;20049;-86
2021/09/02 01:33:03;;;;;;;4.63;3.20;;;;;;;;;;5015134;28;20508;-85
2021/09/02 01:35:32;;;;;;;4.65;2.67;;;;;;;;;;5028336;28;20453;-84
2021/09/02 01:37:59;;;;;;;4.18;2.80;;;;;;;;;;5026515;28;20042;-84
2021/09/02 01:40:27;;;;;;;4.70;2.78;;;;;;;;;;5026616;28;20064;-83
2021/09/02 01:42:54;;;;;;;4.60;3.10;;;;;;;;;;5021894;28;20044;-85
2021/09/02 01:45:20;;;;;;;3.65;2.50;;;;;;;;;;5026194;28;20034;-85
2021/09/02 01:47:47;;;;;;;5.15;3.13;;;;;;;;;;5027960;28;20495;-87
2021/09/02 01:50:21;;;;;;;3.92;2.67;;;;;;;;;;5023011;28;20058;-88
2021/09/02 01:52:47;;;;;;;3.50;2.40;;;;;;;;;;5021401;28;20100;-88
2021/09/02 01:55:14;;;;;;;5.55;3.00;;;;;;;;;;5025913;28;20058;-89
2021/09/02 01:57:41;;;;;;;4.78;2.80;;;;;;;;;;5028464;28;20057;-89
2021/09/02 02:00:08;;;;;;;3.97;2.58;;;;;;;;;;5026546;28;20519;-88
2021/09/02 02:02:35;;;;;;;4.78;3.28;;;;;;;;;;5029865;28;20095;-88
2021/09/02 02:05:01;;;;;;;4.55;3.00;;;;;;;;;;5040918;28;20065;-89
2021/09/02 02:07:28;;;;;;;4.93;3.20;;;;;;;;;;5031573;28;20098;-89
2021/09/02 02:09:54;;;;;;;5.15;2.88;;;;;;;;;;5037262;28;20087;-88
2021/09/02 02:12:20;;;;;;;4.68;3.08;;;;;;;;;;5033834;28;20084;-88
2021/09/02 02:14:47;;;;;;;4.28;2.83;;;;;;;;;;5032301;28;20045;-88
2021/09/02 02:17:13;;;;;;;4.47;2.55;;;;;;;;;;5013024;28;20111;-83
2021/09/02 02:19:40;;;;;;;3.90;2.67;;;;;;;;;;5029500;28;20069;-86
2021/09/02 02:22:06;;;;;;;4.57;2.85;;;;;;;;;;5023997;28;20061;-85
2021/09/02 02:24:33;;;;;;;5.05;3.00;;;;;;;;;;5027924;28;20068;-85
2021/09/02 02:26:59;;;;;;;4.38;2.88;;;;;;;;;;5026192;28;20119;-86
2021/09/02 02:29:26;;;;;;;4.07;2.45;;;;;;;;;;5033332;28;20061;-86
2021/09/02 02:31:52;;;;;;;4.20;2.50;;;;;;;;;;5017983;28;20061;-87
2021/09/02 02:34:19;;;;;;;4.55;2.70;;;;;;;;;;5023913;28;20619;-85
2021/09/02 02:36:45;;;;;;;4.82;2.67;;;;;;;;;;5016718;28;20077;-83
2021/09/02 02:39:12;;;;;;;4.05;2.65;;;;;;;;;;5023168;28;20231;-85
2021/09/02 02:41:38;;;;;;;4.75;2.88;;;;;;;;;;5020544;28;20069;-85
2021/09/02 02:44:05;;;;;;;3.97;2.58;;;;;;;;;;5030906;28;20057;-87
2021/09/02 02:46:31;;;;;;;5.13;2.80;;;;;;;;;;5033612;28;20400;-86
2021/09/02 02:48:58;;;;;;;4.32;2.92;;;;;;;;;;5019951;28;20359;-86
2021/09/02 02:51:24;;;;;;;3.97;2.47;;;;;;;;;;5036125;28;20452;-84
2021/09/02 02:53:51;;;;;;;4.47;2.50;;;;;;;;;;5025435;28;20064;-85
2021/09/02 02:56:17;;;;;;;3.58;2.03;;;;;;;;;;5018861;28;20064;-85
2021/09/02 02:58:44;;;;;;;4.95;2.72;;;;;;;;;;5028748;28;22332;-85
2021/09/02 03:01:11;;;;;;;4.10;2.40;;;;;;;;;;5024036;28;20125;-86
2021/09/02 03:03:38;;;;;;;5.05;2.70;;;;;;;;;;5037786;28;20056;-90
2021/09/02 03:06:05;;;;;;;3.78;2.42;;;;;;;;;;5031820;28;20060;-88
2021/09/02 03:08:32;;;;;;;4.05;2.70;;;;;;;;;;5024900;28;20055;-88
2021/09/02 03:10:58;;;;;;;3.72;2.40;;;;;;;;;;5024999;28;20040;-86
2021/09/02 03:13:24;;;;;;;4.38;2.30;;;;;;;;;;5029815;28;20057;-85
2021/09/02 03:15:51;;;;;;;4.25;2.53;;;;;;;;;;5027942;28;20122;-84
2021/09/02 03:18:17;;;;;;;4.10;2.70;;;;;;;;;;5032668;28;20057;-88
2021/09/02 03:20:43;;;;;;;5.05;2.50;;;;;;;;;;5021102;28;20467;-87
2021/09/02 03:23:10;;;;;;;4.85;2.72;;;;;;;;;;5020548;28;20090;-87
2021/09/02 03:25:36;;;;;;;4.38;2.78;;;;;;;;;;5017516;28;20066;-86
2021/09/02 03:28:03;;;;;;;4.43;2.30;;;;;;;;;;5015137;28;20136;-87
2021/09/02 03:30:29;;;;;;;4.03;2.70;;;;;;;;;;5016558;28;20065;-80
2021/09/02 03:32:55;;;;;;;3.80;2.40;;;;;;;;;;5019888;28;20065;-83
2021/09/02 03:35:22;;;;;;;4.00;2.38;;;;;;;;;;5029509;28;20126;-83
2021/09/02 03:37:48;;;;;;;4.57;2.42;;;;;;;;;;5021675;28;20057;-82
2021/09/02 03:40:15;;;;;;;3.83;2.40;;;;;;;;;;5020597;28;20092;-82
2021/09/02 03:42:41;;;;;;;4.40;2.85;;;;;;;;;;5017831;28;20053;-81
2021/09/02 03:45:08;;;;;;;4.47;2.83;;;;;;;;;;5036253;28;20060;-82
2021/09/02 03:47:34;;;;;;;4.38;2.80;;;;;;;;;;5019240;28;20061;-83
2021/09/02 03:50:01;;;;;;;3.78;2.42;;;;;;;;;;5020901;28;20053;-83
2021/09/02 03:52:28;;;;;;;4.18;2.65;;;;;;;;;;5017655;28;20116;-81
2021/09/02 03:54:55;;;;;;;4.35;2.85;;;;;;;;;;5018656;28;20095;-79
2021/09/02 03:57:21;;;;;;;5.15;2.47;;;;;;;;;;5020972;28;20062;-80
2021/09/02 03:59:48;;;;;;;5.65;2.80;;;;;;;;;;5027792;28;20072;-80
2021/09/02 04:02:14;;;;;;;4.47;2.85;;;;;;;;;;5030450;28;20489;-81
2021/09/02 04:04:41;;;;;;;4.00;2.38;;;;;;;;;;5022777;28;20057;-79
2021/09/02 04:07:07;;;;;;;4.38;2.75;;;;;;;;;;5018741;28;20068;-79
2021/09/02 04:09:33;;;;;;;3.95;2.40;;;;;;;;;;5023440;28;20076;-80
2021/09/02 04:12:00;;;;;;;5.43;2.67;;;;;;;;;;5015500;28;20065;-82
2021/09/02 04:14:26;;;;;;;4.38;2.70;;;;;;;;;;5017709;28;20075;-82
2021/09/02 04:16:55;;;;;;;4.03;2.65;;;;;;;;;;5013621;28;20445;-83
2021/09/02 04:19:23;;;;;;;3.75;2.38;;;;;;;;;;5020953;28;20033;-83
2021/09/02 04:21:49;;;;;;;5.10;2.20;;;;;;;;;;5012947;28;20057;-83
2021/09/02 04:24:15;;;;;;;4.82;2.67;;;;;;;;;;5023170;28;20493;-83
2021/09/02 04:26:42;;;;;;;4.35;2.38;;;;;;;;;;5022415;28;20584;-82
2021/09/02 04:29:08;;;;;;;3.95;2.38;;;;;;;;;;5024753;28;20053;-83
2021/09/02 04:31:35;;;;;;;4.25;2.33;;;;;;;;;;5021768;28;20076;-83
2021/09/02 04:34:01;;;;;;;6.53;3.67;;;;;;;;;;5029270;28;20040;-82
2021/09/02 04:36:28;;;;;;;4.90;2.33;;;;;;;;;;5026250;28;20053;-81
2021/09/02 04:38:54;;;;;;;4.22;2.53;;;;;;;;;;5017315;28;20535;-81
2021/09/02 04:41:20;;;;;;;4.03;2.35;;;;;;;;;;5019516;28;20155;-84
2021/09/02 04:43:47;;;;;;;5.10;2.67;;;;;;;;;;5018593;28;20054;-80
2021/09/02 04:46:14;;;;;;;4.97;2.42;;;;;;;;;;5031621;28;20053;-82
2021/09/02 04:48:40;;;;;;;4.47;2.05;;;;;;;;;;5021705;28;20069;-83
2021/09/02 04:51:07;;;;;;;4.55;2.50;;;;;;;;;;5021074;28;20065;-83
2021/09/02 04:53:33;;;;;;;4.38;2.20;;;;;;;;;;5016840;28;20073;-83
2021/09/02 04:55:59;;;;;;;3.67;2.08;;;;;;;;;;5017489;28;20067;-82
2021/09/02 04:58:26;;;;;;;4.28;2.53;;;;;;;;;;5016388;28;20112;-82
2021/09/02 05:00:52;;;;;;;3.38;2.40;;;;;;;;;;5017757;28;20053;-82
2021/09/02 05:03:18;;;;;;;4.00;2.17;;;;;;;;;;5018516;28;20075;-83
2021/09/02 05:05:45;;;;;;;3.55;2.35;;;;;;;;;;5020461;28;20077;-83
2021/09/02 05:08:11;;;;;;;3.53;2.40;;;;;;;;;;5014442;28;20118;-82
2021/09/02 05:10:38;;;;;;;3.72;2.22;;;;;;;;;;5019569;28;20119;-82
2021/09/02 05:13:04;;;;;;;4.20;2.22;;;;;;;;;;5012342;28;20046;-81
2021/09/02 05:15:30;;;;;;;3.17;2.05;;;;;;;;;;5020210;28;20065;-82
2021/09/02 05:17:57;;;;;;;3.47;2.20;;;;;;;;;;5012683;28;20116;-83
2021/09/02 05:20:23;;;;;;;3.80;2.17;;;;;;;;;;5020486;28;20077;-82
2021/09/02 05:22:50;;;;;;;3.83;2.33;;;;;;;;;;5013509;28;20119;-81
2021/09/02 05:25:16;;;;;;;3.22;2.05;;;;;;;;;;5023278;28;20045;-81
2021/09/02 05:27:43;;;;;;;3.60;2.33;;;;;;;;;;5024834;28;20056;-82
2021/09/02 05:30:11;;;;;;;5.13;2.58;;;;;;;;;;5015228;28;20886;-82
2021/09/02 05:32:38;;;;;;;5.47;2.33;;;;;;;;;;5017227;28;20072;-82
2021/09/02 05:35:05;;;;;;;4.35;2.40;;;;;;;;;;5018800;28;20064;-82
2021/09/02 05:37:31;;;;;;;3.72;2.22;;;;;;;;;;5010764;28;20073;-82
2021/09/02 05:39:57;;;;;;;3.92;2.00;;;;;;;;;;5013950;28;20123;-82
2021/09/02 05:42:24;;;;;;;4.20;2.42;;;;;;;;;;5007108;28;20111;-82
2021/09/02 05:44:50;;;;;;;4.05;2.33;;;;;;;;;;5016990;28;20050;-83
2021/09/02 05:47:17;;;;;;;4.10;2.65;;;;;;;;;;5016753;28;20076;-82
2021/09/02 05:49:43;;;;;;;5.18;2.67;;;;;;;;;;5023709;28;20543;-83
2021/09/02 05:52:10;;;;;;;5.25;2.78;;;;;;;;;;5014045;28;20515;-83
2021/09/02 05:54:36;;;;;;;4.93;2.30;;;;;;;;;;5022723;28;20135;-83
2021/09/02 05:57:02;;;;;;;5.72;2.53;;;;;;;;;;5024729;28;20061;-83
2021/09/02 05:59:29;;;;;;;4.32;2.58;;;;;;;;;;5028049;28;20060;-82
2021/09/02 06:01:55;;;;;;;4.97;2.38;;;;;;;;;;5021166;28;20581;-83
2021/09/02 06:04:22;;;;;;;4.15;2.55;;;;;;;;;;5022567;28;20057;-85
2021/09/02 06:06:48;;;;;;;5.05;2.58;;;;;;;;;;5035248;28;20064;-82
2021/09/02 06:09:14;;;;;;;3.30;2.10;;;;;;;;;;5021472;28;20034;-83
2021/09/02 06:11:41;;;;;;;5.88;2.65;;;;;;;;;;5017926;28;20057;-83
2021/09/02 06:14:07;;;;;;;4.38;2.40;;;;;;;;;;5027364;28;20061;-82
2021/09/02 06:16:34;;;;;;;4.40;2.45;;;;;;;;;;5021122;28;20057;-83
2021/09/02 06:19:00;;;;;;;3.90;2.40;;;;;;;;;;5020146;28;20076;-83
2021/09/02 06:21:26;;;;;;;5.07;2.63;;;;;;;;;;5013143;28;20531;-82
2021/09/02 06:23:53;;;;;;;3.70;2.40;;;;;;;;;;5030785;28;20065;-82
2021/09/02 06:26:19;;;;;;;3.90;2.50;;;;;;;;;;5023919;28;20070;-83
2021/09/02 06:28:45;;;;;;;4.85;2.58;;;;;;;;;;5027968;28;20119;-84
2021/09/02 06:31:12;;;;;;;4.60;2.60;;;;;;;;;;5026153;28;20489;-82
2021/09/02 06:33:40;;;;;;;4.38;2.42;;;;;;;;;;5016220;28;20073;-82
2021/09/02 06:36:06;;;;;;;3.92;2.35;;;;;;;;;;5028725;28;20072;-82
2021/09/02 06:38:32;;;;;;;4.32;2.40;;;;;;;;;;5015785;28;20532;-84
2021/09/02 06:40:59;;;;;;;5.13;2.70;;;;;;;;;;5020039;28;20108;-85
2021/09/02 06:43:25;;;;;;;4.40;2.50;;;;;;;;;;5020241;28;20438;-82
2021/09/02 06:45:52;;;;;;;4.18;2.60;;;;;;;;;;5028123;28;20056;-85
2021/09/02 06:48:18;;;;;;;3.38;2.10;;;;;;;;;;5024011;28;20061;-83
2021/09/02 06:50:45;;;;;;;3.90;2.08;;;;;;;;;;5026395;28;20058;-83
2021/09/02 06:53:11;;;;;;;3.75;2.20;;;;;;;;;;5024806;28;20030;-84
2021/09/02 06:55:37;;;;;;;4.82;2.60;;;;;;;;;;5026267;28;20127;-82
2021/09/02 06:58:04;;;;;;;5.85;2.40;;;;;;;;;;5014163;28;20065;-82
2021/09/02 07:00:30;;;;;;;4.00;2.33;;;;;;;;;;5018937;28;20172;-83
2021/09/02 07:02:57;;;;;;;5.05;2.38;;;;;;;;;;5020606;28;20505;-82
2021/09/02 07:05:23;;;;;;;3.70;2.40;;;;;;;;;;5017036;28;20061;-83
2021/09/02 07:07:52;;;;;;;4.55;2.53;;;;;;;;;;5015919;28;20049;-83
2021/09/02 07:10:18;;;;;;;3.95;2.38;;;;;;;;;;5020024;28;20064;-82
2021/09/02 07:12:44;;;;;;;4.30;2.47;;;;;;;;;;5013882;28;20057;-83
2021/09/02 07:15:11;;;;;;;4.07;2.50;;;;;;;;;;5016673;28;20034;-83
2021/09/02 07:17:38;;;;;;;3.65;2.35;;;;;;;;;;5018976;28;20076;-82
2021/09/02 07:20:05;;;;;;;4.05;2.05;;;;;;;;;;5019205;28;20048;-83
2021/09/02 07:22:32;;;;;;;4.55;2.55;;;;;;;;;;5014663;28;20056;-82
2021/09/02 07:24:58;;;;;;;3.90;2.30;;;;;;;;;;5023586;28;20052;-82
2021/09/02 07:27:25;;;;;;;4.40;2.80;;;;;;;;;;5026421;28;20076;-82
2021/09/02 07:29:51;;;;;;;3.90;2.20;;;;;;;;;;5015982;28;20419;-81
2021/09/02 07:32:18;;;;;;;3.92;2.40;;;;;;;;;;5017583;28;20061;-82
2021/09/02 07:34:45;;;;;;;4.15;2.40;;;;;;;;;;5013045;28;20053;-83
2021/09/02 07:37:11;;;;;;;5.47;2.35;;;;;;;;;;5021541;28;20465;-84
2021/09/02 07:39:38;;;;;;;4.35;2.50;;;;;;;;;;5017924;28;20065;-84
2021/09/02 07:42:05;;;;;;;5.22;2.47;;;;;;;;;;5013102;28;20065;-83
2021/09/02 07:44:31;;;;;;;3.97;2.22;;;;;;;;;;5020572;28;20056;-82
2021/09/02 07:46:58;;;;;;;3.30;1.95;;;;;;;;;;5017075;28;20049;-82
2021/09/02 07:49:24;;;;;;;3.88;2.17;;;;;;;;;;5019999;28;20099;-83
2021/09/02 07:51:50;;;;;;;3.78;2.42;;;;;;;;;;5008855;28;20119;-83
2021/09/02 07:54:17;;;;;;;4.47;2.13;;;;;;;;;;5015580;28;20057;-82
2021/09/02 07:56:43;;;;;;;4.65;2.47;;;;;;;;;;5013618;28;20064;-84
2021/09/02 07:59:10;;;;;;;4.25;2.40;;;;;;;;;;5020072;28;20057;-83
2021/09/02 08:01:36;;;;;;;3.28;2.30;;;;;;;;;;5012870;28;20080;-82
2021/09/02 08:04:02;;;;;;;3.60;2.47;;;;;;;;;;5014344;28;20092;-82
2021/09/02 08:06:29;;;;;;;3.60;2.25;;;;;;;;;;5015832;28;20054;-89
2021/09/02 08:08:55;;;;;;;5.15;2.58;;;;;;;;;;5014890;28;20077;-86
2021/09/02 08:11:22;;;;;;;3.38;2.08;;;;;;;;;;5019728;28;20041;-90
2021/09/02 08:13:48;;;;;;;3.03;1.92;;;;;;;;;;4997109;28;20029;-88
2021/09/02 08:16:15;;;;;;;3.95;2.40;;;;;;;;;;5021603;28;20029;-87
2021/09/02 08:18:41;;;;;;;4.15;2.03;;;;;;;;;;5018803;28;20057;-86
2021/09/02 08:21:08;;;;;;;4.43;2.58;;;;;;;;;;5024280;28;20073;-87
2021/09/02 08:23:34;;;;;;;3.92;2.00;;;;;;;;;;5023362;28;20537;-85
2021/09/02 08:26:00;;;;;;;3.65;1.80;;;;;;;;;;5026427;28;20068;-86
2021/09/02 08:28:27;;;;;;;4.80;1.90;;;;;;;;;;5015827;28;20053;-86
2021/09/02 08:30:54;;;;;;;4.07;2.22;;;;;;;;;;5014919;28;20053;-88
2021/09/02 08:33:20;;;;;;;4.38;2.15;;;;;;;;;;5019644;28;20519;-88
2021/09/02 08:35:56;;;;;;;3.97;2.20;;;;;;;;;;5029532;28;20087;-92
2021/09/02 08:38:22;;;;;;;5.05;2.25;;;;;;;;;;5034980;28;20076;-90
2021/09/02 08:40:49;;;;;;;3.75;1.98;;;;;;;;;;5031109;28;20122;-89
2021/09/02 08:43:16;;;;;;;4.13;2.22;;;;;;;;;;5029702;28;20053;-88
2021/09/02 08:45:43;;;;;;;3.45;2.25;;;;;;;;;;5029655;28;20029;-88
2021/09/02 08:48:09;;;;;;;4.13;2.20;;;;;;;;;;5014834;28;20045;-89
2021/09/02 08:50:37;;;;;;;2.90;1.80;;;;;;;;;;5029193;28;20022;-89
2021/09/02 08:53:03;;;;;;;3.05;1.67;;;;;;;;;;5014377;28;20448;-89
2021/09/02 08:55:30;;;;;;;3.75;2.22;;;;;;;;;;5028509;28;20056;-90
2021/09/02 08:57:57;;;;;;;4.30;2.22;;;;;;;;;;5020952;28;20064;-89
2021/09/02 09:00:25;;;;;;;5.50;2.22;;;;;;;;;;5020116;28;20116;-90
2021/09/02 09:03:02;;;;;;;4.47;2.13;;;;;;;;;;5029221;28;22375;-90
2021/09/02 09:05:30;;;;;;;3.15;2.05;;;;;;;;;;5001059;28;20029;-89
2021/09/02 09:07:57;;;;;;;4.00;2.30;;;;;;;;;;5022272;28;20061;-90
2021/09/02 09:10:25;;;;;;;5.68;2.40;;;;;;;;;;5031224;28;20068;-89
2021/09/02 09:12:53;;;;;;;3.25;2.00;;;;;;;;;;5024623;28;22160;-89
2021/09/02 09:15:24;;;;;;;4.57;2.30;;;;;;;;;;5030325;28;20120;-89
2021/09/02 09:17:51;;;;;;;3.80;2.08;;;;;;;;;;5025662;28;20033;-89
2021/09/02 09:20:18;;;;;;;3.63;2.22;;;;;;;;;;5021985;28;20565;-88
2021/09/02 09:22:48;;;;;;;4.00;2.08;;;;;;;;;;5011366;28;20503;-88
2021/09/02 09:25:15;;;;;;;3.55;2.25;;;;;;;;;;5035046;28;20088;-89
2021/09/02 09:27:45;;;;;;;4.00;2.17;;;;;;;;;;5020093;28;20053;-90
2021/09/02 09:30:21;;;;;;;3.13;1.73;;;;;;;;;;5023658;28;20037;-89
2021/09/02 09:32:58;;;;;;;4.13;2.13;;;;;;;;;;5021519;28;20033;-87
2021/09/02 09:35:32;;;;;;;4.15;2.35;;;;;;;;;;5016426;28;20066;-88
2021/09/02 09:38:07;;;;;;;3.67;2.13;;;;;;;;;;5014036;28;20057;-87
2021/09/02 09:40:44;;;;;;;4.00;2.28;;;;;;;;;;5014694;28;20061;-88
2021/09/02 09:43:11;;;;;;;4.13;2.15;;;;;;;;;;5033627;28;20069;-86
2021/09/02 09:45:42;;;;;;;4.07;2.22;;;;;;;;;;5015662;28;20046;-87
2021/09/02 09:48:17;;;;;;;3.20;1.92;;;;;;;;;;5025000;28;20072;-87
2021/09/02 09:50:44;;;;;;;3.70;2.10;;;;;;;;;;5021987;28;20062;-87
2021/09/02 09:53:23;;;;;;;2.90;1.60;;;;;;;;;;5018984;28;20589;-88
2021/09/02 09:55:51;;;;;;;3.40;2.00;;;;;;;;;;5020664;28;20065;-89
2021/09/02 09:58:17;;;;;;;4.45;2.35;;;;;;;;;;5022084;28;20061;-88
2021/09/02 10:00:44;;;;;;;3.80;2.13;;;;;;;;;;5020254;28;20049;-88
2021/09/02 10:03:10;;;;;;;3.10;1.80;;;;;;;;;;5026441;28;20033;-88
2021/09/02 10:05:37;;;;;;;3.15;1.77;;;;;;;;;;5021443;28;20042;-86
2021/09/02 10:08:04;;;;;;;3.42;1.65;;;;;;;;;;5026850;28;20449;-87
2021/09/02 10:10:31;;;;;;;3.55;2.05;;;;;;;;;;5025021;28;20049;-88
2021/09/02 10:12:57;;;;;;;3.33;1.80;;;;;;;;;;5022231;28;20110;-88
2021/09/02 10:15:25;;;;;;;4.72;2.25;;;;;;;;;;5022293;28;20066;-89
2021/09/02 10:17:52;;;;;;;3.20;2.00;;;;;;;;;;5018924;28;20104;-89
2021/09/02 10:20:22;;;;;;;4.05;2.30;;;;;;;;;;5020935;28;20115;-87
2021/09/02 10:22:49;;;;;;;3.13;2.13;;;;;;;;;;5017691;28;20485;-89
2021/09/02 10:25:34;;;;;;;2.90;1.88;;;;;;;;;;5018636;28;20049;-89
2021/09/02 10:28:17;;;;;;;3.88;1.77;;;;;;;;;;5024782;28;20136;-86
2021/09/02 10:30:47;;;;;;;3.13;1.80;;;;;;;;;;5015710;28;20495;-84
2021/09/02 10:33:29;;;;;;;3.25;2.22;;;;;;;;;;5014360;28;20049;-85
2021/09/02 10:35:55;;;;;;;4.80;2.53;;;;;;;;;;5011864;28;20083;-84
2021/09/02 10:38:38;;;;;;;3.78;1.77;;;;;;;;;;5020719;28;20069;-86
2021/09/02 10:41:05;;;;;;;4.28;2.33;;;;;;;;;;5021352;28;21241;-88
2021/09/02 10:43:51;;;;;;;4.95;2.05;;;;;;;;;;5021315;28;20046;-88
2021/09/02 10:46:45;;;;;;;3.97;2.10;;;;;;;;;;5026469;28;20405;-85
2021/09/02 10:49:20;;;;;;;3.63;2.03;;;;;;;;;;5005452;28;20564;-87
2021/09/02 10:51:51;;;;;;;3.50;2.00;;;;;;;;;;5001233;28;20486;-85
2021/09/02 10:54:22;;;;;;;3.65;1.77;;;;;;;;;;5005605;28;20037;-84
2021/09/02 10:56:56;;;;;;;4.28;2.08;;;;;;;;;;5015373;28;20049;-86
2021/09/02 10:59:40;;;;;;;3.95;1.92;;;;;;;;;;5023076;28;20033;-86
2021/09/02 11:02:08;;;;;;;3.83;2.10;;;;;;;;;;5019738;28;20069;-87
2021/09/02 11:04:36;;;;;;;2.97;1.88;;;;;;;;;;5016063;28;20511;-89
2021/09/02 11:07:02;;;;;;;3.33;1.90;;;;;;;;;;5022573;28;20492;-90
2021/09/02 11:09:33;;;;;;;3.85;2.00;;;;;;;;;;5015459;28;20062;-88
2021/09/02 11:12:00;;;;;;;4.10;1.75;;;;;;;;;;5017570;28;20102;-87
2021/09/02 11:14:27;;;;;;;4.20;2.10;;;;;;;;;;5025046;28;20034;-83
2021/09/02 11:16:53;;;;;;;3.20;1.92;;;;;;;;;;5016523;28;20401;-89
2021/09/02 11:19:30;;;;;;;3.20;1.67;;;;;;;;;;5023105;28;20482;-87
2021/09/02 11:21:57;;;;;;;3.83;1.90;;;;;;;;;;5014777;28;21285;-87
2021/09/02 11:24:24;;;;;;;3.10;1.63;;;;;;;;;;5026597;28;20118;-88
2021/09/02 11:26:51;;;;;;;3.78;1.70;;;;;;;;;;5026224;28;20049;-88
2021/09/02 11:29:24;;;;;;;2.95;1.60;;;;;;;;;;5029914;28;20034;-87
2021/09/02 11:32:13;;;;;;;2.13;1.27;;;;;;;;;;5015957;28;20438;-87
2021/09/02 11:34:40;;;;;;;9.20;2.10;;;;;;;;;;5026160;28;20612;-87
2021/09/02 11:37:07;;;;;;;3.65;1.50;;;;;;;;;;5008941;28;20472;-88
2021/09/02 11:39:35;;;;;;;3.10;1.70;;;;;;;;;;5015876;28;20418;-87
2021/09/02 11:42:03;;;;;;;2.55;1.50;;;;;;;;;;5024219;28;20105;-88
2021/09/02 11:44:35;;;;;;;3.45;1.45;;;;;;;;;;5021434;28;20033;-88
2021/09/02 11:47:05;;;;;;;3.88;1.38;;;;;;;;;;5021391;28;20057;-88
2021/09/02 11:49:32;;;;;;;2.57;1.60;;;;;;;;;;5015817;28;20156;-88
2021/09/02 11:51:59;;;;;;;3.15;1.58;;;;;;;;;;5019646;28;20080;-88
2021/09/02 11:54:26;;;;;;;2.55;1.40;;;;;;;;;;5016876;28;20504;-88
2021/09/02 11:56:52;;;;;;;2.40;1.42;;;;;;;;;;5020971;28;20973;-87
2021/09/02 11:59:20;;;;;;;3.55;1.75;;;;;;;;;;5022909;28;20049;-86
2021/09/02 12:01:47;;;;;;;3.63;1.70;;;;;;;;;;5019416;28;20509;-89
2021/09/02 12:04:17;;;;;;;4.35;1.90;;;;;;;;;;5020999;28;20477;-88
2021/09/02 12:06:44;;;;;;;4.72;1.67;;;;;;;;;;5016879;28;20053;-88
2021/09/02 12:09:11;;;;;;;3.92;1.60;;;;;;;;;;5017331;28;20062;-88
2021/09/02 12:11:39;;;;;;;3.90;1.80;;;;;;;;;;5019975;28;20450;-88
2021/09/02 12:14:16;;;;;;;3.53;1.63;;;;;;;;;;5018528;28;20057;-87
2021/09/02 12:16:42;;;;;;;3.65;1.60;;;;;;;;;;5016076;28;20064;-88
2021/09/02 12:19:09;;;;;;;3.95;1.88;;;;;;;;;;5017613;28;20441;-91
2021/09/02 12:21:35;;;;;;;3.08;1.30;;;;;;;;;;5015173;28;20058;-88
2021/09/02 12:24:06;;;;;;;2.83;1.40;;;;;;;;;;5013870;28;20108;-90
2021/09/02 12:26:47;;;;;;;3.35;1.40;;;;;;;;;;5024107;28;20056;-89
2021/09/02 12:29:14;;;;;;;3.58;1.17;;;;;;;;;;5019827;28;20088;-89
2021/09/02 12:31:41;;;;;;;2.63;1.35;;;;;;;;;;5018793;28;20072;-89
2021/09/02 12:34:08;;;;;;;2.50;1.10;;;;;;;;;;5007490;28;20082;-86
2021/09/02 12:36:42;;;;;;;3.65;1.30;;;;;;;;;;5025795;28;20496;-84
2021/09/02 12:39:34;;;;;;;3.22;1.55;;;;;;;;;;5013852;28;20521;-85
2021/09/02 12:42:05;;;;;;;3.00;1.52;;;;;;;;;;5013171;28;20358;-84
2021/09/02 12:44:33;;;;;;;3.20;1.48;;;;;;;;;;5022247;28;20170;-84
2021/09/02 12:47:19;;;;;;;5.68;1.88;;;;;;;;;;5019965;28;20120;-85
2021/09/02 12:49:45;;;;;;;3.88;1.40;;;;;;;;;;5018936;28;20130;-90
2021/09/02 12:52:13;;;;;;;5.15;1.20;;;;;;;;;;5018300;28;20061;-88
2021/09/02 12:54:58;;;;;;;4.05;1.10;;;;;;;;;;5017651;28;20842;-89
2021/09/02 12:57:25;;;;;;;1.85;0.90;;;;;;;;;;5015284;28;20112;-88
2021/09/02 12:59:51;;;;;;;4.07;1.15;;;;;;;;;;5012906;28;20084;-89
2021/09/02 13:02:17;;;;;;;2.47;1.08;;;;;;;;;;5022631;28;20065;-88
2021/09/02 13:04:44;;;;;;;2.20;1.33;;;;;;;;;;5015733;28;20053;-90
2021/09/02 13:07:10;;;;;;;2.10;1.23;;;;;;;;;;5016209;28;20053;-90
2021/09/02 13:09:37;;;;;;;4.25;1.30;;;;;;;;;;5012805;28;20060;-89
2021/09/02 13:12:03;;;;;;;2.45;1.10;;;;;;;;;;5017973;28;20057;-91
2021/09/02 13:14:30;;;;;;;2.63;1.45;;;;;;;;;;5025782;28;20063;-89
2021/09/02 13:16:56;;;;;;;2.95;1.20;;;;;;;;;;5021514;28;20069;-90
2021/09/02 13:19:22;;;;;;;2.75;1.42;;;;;;;;;;5017062;28;20427;-90
2021/09/02 13:21:49;;;;;;;3.67;1.15;;;;;;;;;;5023765;28;20426;-90
2021/09/02 13:24:15;;;;;;;3.00;1.52;;;;;;;;;;5022608;28;20072;-88
2021/09/02 13:26:41;;;;;;;3.13;1.60;;;;;;;;;;5023883;28;20528;-91
2021/09/02 13:29:08;;;;;;;3.30;1.70;;;;;;;;;;5022498;28;20118;-89
2021/09/02 13:31:35;;;;;;;3.58;2.33;;;;;;;;;;5015992;28;20057;-88
2021/09/02 13:34:01;;;;;;;4.95;2.70;;;;;;;;;;5020668;28;20053;-90
2021/09/02 13:36:28;;;;;;;4.47;2.88;;;;;;;;;;5019698;28;20069;-88
2021/09/02 13:38:54;;;;;;;4.10;2.50;;;;;;;;;;5017214;28;20105;-90
2021/09/02 13:41:20;;;;;;;4.28;2.65;;;;;;;;;;5018716;28;20151;-89
2021/09/02 13:43:47;;;;;;;3.45;2.20;;;;;;;;;;5018796;28;20127;-89
2021/09/02 13:46:15;;;;;;;4.30;2.38;;;;;;;;;;5019319;28;20061;-88
2021/09/02 13:48:41;;;;;;;7.50;5.22;;;;;;;;;;5018490;28;20076;-89
2021/09/02 13:51:10;;;;;;;7.35;4.50;;;;;;;;;;5021885;28;20061;-87
2021/09/02 13:53:36;;;;;;;6.78;4.28;;;;;;;;;;5020745;28;20555;-90
2021/09/02 13:56:03;;;;;;;6.30;3.38;;;;;;;;;;5018329;28;20551;-90
2021/09/02 13:58:29;;;;;;;5.63;3.35;;;;;;;;;;5019012;28;20061;-88
2021/09/02 14:01:00;;;;;;;6.45;2.67;;;;;;;;;;5023349;28;20053;-88
2021/09/02 14:03:30;;;;;;;3.78;2.55;;;;;;;;;;5020205;28;21914;-86
2021/09/02 14:05:59;;;;;;;4.78;2.70;;;;;;;;;;5015044;28;21323;-86
2021/09/02 14:08:25;;;;;;;7.05;2.38;;;;;;;;;;5021231;28;20196;-88
2021/09/02 14:10:52;;;;;;;5.85;2.28;;;;;;;;;;5018576;28;20049;-87
2021/09/02 14:13:18;;;;;;;5.05;2.45;;;;;;;;;;5020296;28;20054;-86
2021/09/02 14:15:45;;;;;;;4.03;2.45;;;;;;;;;;5018579;28;20527;-89
2021/09/02 14:18:11;;;;;;;4.15;2.05;;;;;;;;;;5020873;28;20029;-87
2021/09/02 14:20:37;;;;;;;4.43;2.10;;;;;;;;;;5017310;28;20066;-88
2021/09/02 14:23:04;;;;;;;5.15;2.30;;;;;;;;;;5020538;28;20627;-89
2021/09/02 14:25:30;;;;;;;4.03;2.17;;;;;;;;;;5014130;28;20056;-89
2021/09/02 14:27:57;;;;;;;3.17;1.80;;;;;;;;;;5022705;28;20072;-88
2021/09/02 14:30:23;;;;;;;3.92;2.20;;;;;;;;;;5019725;28;20061;-90
2021/09/02 14:32:49;;;;;;;4.50;2.05;;;;;;;;;;5012707;28;20116;-90
2021/09/02 14:35:16;;;;;;;4.00;2.00;;;;;;;;;;5019450;28;20057;-89
2021/09/02 14:37:42;;;;;;;3.00;1.88;;;;;;;;;;5019413;28;20080;-89
2021/09/02 14:40:09;;;;;;;4.97;2.28;;;;;;;;;;5021529;28;20070;-87
2021/09/02 14:42:35;;;;;;;4.55;2.33;;;;;;;;;;5015682;28;20069;-88
2021/09/02 14:45:03;;;;;;;3.85;2.22;;;;;;;;;;5021361;28;20065;-89